Deerfield River @ West Deerfield, Ma

Deerfield River at West Deerfield
 Total Drainage Area: 558 sq. miles 
 Drainage Area Controlled by Corps Dams: 0 sq. miles (0%) 
 Warning Flow/Stage: 10,500 cfs / 7.0 feet 
 Flood Flow/Stage: 14,200 cfs / 8.0 feet 
Date Time
(Eastern)
Stage
(ft)
Flow
(cfs)
CSM
(cfs / sq. mi.)
Jan-31 09:30 pm 3.65 1,853 3.3
Jan-31 08:30 pm 3.76 2,035 3.7
Jan-31 07:30 pm 3.78 2,069 3.7
Jan-31 06:30 pm 3.79 2,086 3.7
Jan-31 05:30 pm 3.78 2,069 3.7
Jan-31 04:30 pm 3.61 1,790 3.2
Jan-31 03:30 pm 3.57 1,727 3.1
Jan-31 02:30 pm 3.57 1,727 3.1
Jan-31 01:30 pm 3.59 1,758 3.2
Jan-31 12:30 pm 3.68 1,902 3.4
Jan-31 11:30 am 3.71 1,951 3.5
Jan-31 10:30 am 3.72 1,968 3.5
Jan-31 09:30 am 3.74 2,001 3.6
Jan-31 08:30 am 3.74 2,001 3.6
Jan-31 07:30 am 3.74 2,001 3.6
Jan-31 06:30 am 3.73 1,984 3.6
Jan-31 05:30 am 3.75 2,018 3.6
Jan-31 04:30 am 3.75 2,018 3.6
Jan-31 03:30 am 3.75 2,018 3.6
Jan-31 02:30 am 3.76 2,035 3.7
Jan-31 01:30 am 3.77 2,052 3.7
Jan-31 12:30 am 3.78 2,069 3.7
Jan-30 11:30 pm 3.77 2,052 3.7
Jan-30 10:30 pm 3.76 2,035 3.7
Jan-30 09:30 pm 3.75 2,018 3.6
Report Generated February 01, 2023 03:36 am